MSC Bremen — A8LK7 — position and weather

sailwx.info

Track history (hours):
 
Tides and Currents Weather Stations Pressure Air Temp Water Temp Dewpoint Dewpoint Depression Visibility Wind Speed Wind Dir Waves Ship Positions

MSC Bremen

Last reported at 2015-May-25 12:00 UTC. Time now 2015-May-25 15:37 UTC.
Position N 11°12' W 055°06'.

Length 294 m; ; draft 13.7 m.

Type: Ship (hazmat cat A). MMSI: 636091270.

Wind from 050 at 15 knots

Waves 1.0 meters (3 feet), 5 second period

Barometer 1015.0 mb
Air temperature 27.0 ° C
Visibility: greater than 5.4 NM
Dewpoint 21.0 ° C

Date/timePositionNaut miles runAvg speedWind from/ knotsBaromVisibWave heightAir tempDewpointWater temp
2015-May-25 12:00N 11°12' W 055°06'10016.7 050 / 151015.0 5.4 1.027.021.0
2015-May-25 06:00N 12°00' W 056°36'10517.6 060 / 181015.027.0 2.027.021.0
2015-May-25 00:00N 12°48' W 058°12'10016.7 070 / 151016.0 5.4 1.027.024.1
2015-May-24 18:00N 13°36' W 059°42'6917.6 070 / 141017.010.8 1.029.023.230.0
2015-May-24 14:04N 14°10' W 060°44'816.7
2015-May-24 13:33N 14°13' W 060°53'1717.5
2015-May-24 12:34N 14°18' W 061°10'814.2
2015-May-24 12:00N 14°18' W 061°18'1023.7 090 / 131017.0 5.4 1.028.023.7
2015-May-24 11:33N 14°24' W 061°27'1615.9
2015-May-24 10:33N 14°29' W 061°42'1615.3
2015-May-24 09:29N 14°35' W 061°58'14915.7
2015-May-24 00:00N 15°24' W 064°24'75211253.5 070 / 151017.0 5.4 1.029.024.8
2015-May-23 18:00N 16°18' E 065°54'   090 / 121018.010.8 1.030.024.332.0
2015-May-16 15:13N 31°56' W 080°30'913.2
2015-May-16 14:33N 31°56' W 080°40'1313.1
2015-May-16 13:33N 32°02' W 080°53'1010.1
2015-May-16 12:33N 32°05' W 081°05'4 3.6
2015-May-16 11:31N 32°07' W 081°08'0 0.0
2015-May-16 10:31N 32°07' W 081°08'0 0.0
2015-May-16 09:31N 32°07' W 081°08'0 0.0
2015-May-16 08:31N 32°07' W 081°08'0 0.0
2015-May-16 07:31N 32°07' W 081°08'0 0.0
2015-May-16 06:31N 32°07' W 081°08'0 0.0
2015-May-16 05:31N 32°07' W 081°08'0 0.0
2015-May-16 04:31N 32°07' W 081°08'0 0.0
2015-May-16 03:31N 32°07' W 081°08'0 0.0
2015-May-16 02:31N 32°07' W 081°08'0 0.0
2015-May-16 01:31N 32°07' W 081°08'0 0.0
2015-May-16 00:31N 32°07' W 081°08'0 0.0
2015-May-15 23:31N 32°07' W 081°08'0 0.0
2015-May-15 22:31N 32°07' W 081°08'0 0.0
2015-May-15 21:31N 32°07' W 081°08'0 0.2
2015-May-15 20:33N 32°07' W 081°08'7 7.3
2015-May-15 19:33N 32°06' W 080°60'1313.2
2015-May-15 18:33N 31°59' W 080°46'9 8.5
2015-May-15 17:33N 31°56' W 080°37'9 9.1
2015-May-15 16:33N 31°57' W 080°26'3 0.7
2015-May-15 12:28N 31°58' W 080°23'  
Track history (hours):
 
Tides and Currents Weather Stations Pressure Air Temp Water Temp Dewpoint Dewpoint Depression Visibility Wind Speed Wind Dir Waves Ship Positions

MSC Bremen

Last reported at 2015-May-25 12:00 UTC. Time now 2015-May-25 15:37 UTC.
Position N 11°12' W 055°06'.

Length 294 m; ; draft 13.7 m.

Type: Ship (hazmat cat A). MMSI: 636091270.

Wind from 050 at 15 knots

Waves 1.0 meters (3 feet), 5 second period

Barometer 1015.0 mb
Air temperature 27.0 ° C
Visibility: greater than 5.4 NM
Dewpoint 21.0 ° C

Date/timePositionNaut miles runAvg speedWind from/ knotsBaromVisibWave heightAir tempDewpointWater temp
2015-May-25 12:00N 11°12' W 055°06'10016.7 050 / 151015.0 5.4 1.027.021.0
2015-May-25 06:00N 12°00' W 056°36'10517.6 060 / 181015.027.0 2.027.021.0
2015-May-25 00:00N 12°48' W 058°12'10016.7 070 / 151016.0 5.4 1.027.024.1
2015-May-24 18:00N 13°36' W 059°42'6917.6 070 / 141017.010.8 1.029.023.230.0
2015-May-24 14:04N 14°10' W 060°44'816.7
2015-May-24 13:33N 14°13' W 060°53'1717.5
2015-May-24 12:34N 14°18' W 061°10'814.2
2015-May-24 12:00N 14°18' W 061°18'1023.7 090 / 131017.0 5.4 1.028.023.7
2015-May-24 11:33N 14°24' W 061°27'1615.9
2015-May-24 10:33N 14°29' W 061°42'1615.3
2015-May-24 09:29N 14°35' W 061°58'14915.7
2015-May-24 00:00N 15°24' W 064°24'75211253.5 070 / 151017.0 5.4 1.029.024.8
2015-May-23 18:00N 16°18' E 065°54'   090 / 121018.010.8 1.030.024.332.0
2015-May-16 15:13N 31°56' W 080°30'913.2
2015-May-16 14:33N 31°56' W 080°40'1313.1
2015-May-16 13:33N 32°02' W 080°53'1010.1
2015-May-16 12:33N 32°05' W 081°05'4 3.6
2015-May-16 11:31N 32°07' W 081°08'0 0.0
2015-May-16 10:31N 32°07' W 081°08'0 0.0
2015-May-16 09:31N 32°07' W 081°08'0 0.0
2015-May-16 08:31N 32°07' W 081°08'0 0.0
2015-May-16 07:31N 32°07' W 081°08'0 0.0
2015-May-16 06:31N 32°07' W 081°08'0 0.0
2015-May-16 05:31N 32°07' W 081°08'0 0.0
2015-May-16 04:31N 32°07' W 081°08'0 0.0
2015-May-16 03:31N 32°07' W 081°08'0 0.0
2015-May-16 02:31N 32°07' W 081°08'0 0.0
2015-May-16 01:31N 32°07' W 081°08'0 0.0
2015-May-16 00:31N 32°07' W 081°08'0 0.0
2015-May-15 23:31N 32°07' W 081°08'0 0.0
2015-May-15 22:31N 32°07' W 081°08'0 0.0
2015-May-15 21:31N 32°07' W 081°08'0 0.2
2015-May-15 20:33N 32°07' W 081°08'7 7.3
2015-May-15 19:33N 32°06' W 080°60'1313.2
2015-May-15 18:33N 31°59' W 080°46'9 8.5
2015-May-15 17:33N 31°56' W 080°37'9 9.1
2015-May-15 16:33N 31°57' W 080°26'3 0.7
2015-May-15 12:28N 31°58' W 080°23'  

Dump ship's entire track history